sensor_id;sensor_type;location;lat;lon;timestamp;pressure;altitude;pressure_sealevel;temperature;humidity
71194;BME280;58903;47.210;8.618;2022-10-31T00:01:52;94742.75;;;25.00;47.54
71194;BME280;58903;47.210;8.618;2022-10-31T00:04:18;94745.50;;;25.00;47.43
71194;BME280;58903;47.210;8.618;2022-10-31T00:06:46;94741.25;;;24.99;47.00
71194;BME280;58903;47.210;8.618;2022-10-31T00:09:13;94751.00;;;25.00;47.10
71194;BME280;58903;47.210;8.618;2022-10-31T00:11:42;94738.00;;;25.00;47.39
71194;BME280;58903;47.210;8.618;2022-10-31T00:14:11;94739.50;;;25.01;46.96
71194;BME280;58903;47.210;8.618;2022-10-31T00:16:37;94745.00;;;25.01;46.91
71194;BME280;58903;47.210;8.618;2022-10-31T00:19:05;94742.75;;;25.00;47.34
71194;BME280;58903;47.210;8.618;2022-10-31T00:21:32;94726.75;;;24.98;47.68
71194;BME280;58903;47.210;8.618;2022-10-31T00:23:59;94727.50;;;24.99;47.11
71194;BME280;58903;47.210;8.618;2022-10-31T00:26:34;94726.75;;;24.98;46.87
71194;BME280;58903;47.210;8.618;2022-10-31T00:29:10;94734.25;;;24.98;46.96
71194;BME280;58903;47.210;8.618;2022-10-31T00:31:39;94723.75;;;24.96;47.16
71194;BME280;58903;47.210;8.618;2022-10-31T00:34:07;94724.50;;;24.97;47.30
71194;BME280;58903;47.210;8.618;2022-10-31T00:36:54;94722.00;;;24.99;47.66
71194;BME280;58903;47.210;8.618;2022-10-31T00:39:22;94728.75;;;24.98;47.19
71194;BME280;58903;47.210;8.618;2022-10-31T00:42:07;94727.25;;;24.97;47.69
71194;BME280;58903;47.210;8.618;2022-10-31T00:44:34;94723.75;;;24.96;47.45
71194;BME280;58903;47.210;8.618;2022-10-31T00:47:00;94725.22;;;24.97;47.67
71194;BME280;58903;47.210;8.618;2022-10-31T00:49:53;94728.75;;;24.98;47.38
71194;BME280;58903;47.210;8.618;2022-10-31T00:52:19;94724.50;;;24.97;47.35
71194;BME280;58903;47.210;8.618;2022-10-31T00:54:45;94721.75;;;24.97;47.67
71194;BME280;58903;47.210;8.618;2022-10-31T00:57:15;94726.00;;;24.98;47.58
71194;BME280;58903;47.210;8.618;2022-10-31T00:59:54;94717.72;;;24.98;47.45
71194;BME280;58903;47.210;8.618;2022-10-31T01:02:20;94719.72;;;24.97;47.72
71194;BME280;58903;47.210;8.618;2022-10-31T01:04:49;94722.47;;;24.97;47.11
71194;BME280;58903;47.210;8.618;2022-10-31T01:07:50;94721.75;;;24.97;47.37
71194;BME280;58903;47.210;8.618;2022-10-31T01:10:45;94711.97;;;24.96;47.75
71194;BME280;58903;47.210;8.618;2022-10-31T01:13:11;94718.25;;;24.96;46.70
71194;BME280;58903;47.210;8.618;2022-10-31T01:15:37;94713.50;;;24.97;47.72
71194;BME280;58903;47.210;8.618;2022-10-31T01:18:05;94710.47;;;24.95;47.41
71194;BME280;58903;47.210;8.618;2022-10-31T01:20:35;94717.22;;;24.94;47.69
71194;BME280;58903;47.210;8.618;2022-10-31T01:23:33;94720.75;;;24.94;47.69
71194;BME280;58903;47.210;8.618;2022-10-31T01:26:01;94712.25;;;24.92;47.17
71194;BME280;58903;47.210;8.618;2022-10-31T01:28:30;94709.97;;;24.91;46.88
71194;BME280;58903;47.210;8.618;2022-10-31T01:31:01;94712.25;;;24.92;47.42
71194;BME280;58903;47.210;8.618;2022-10-31T01:33:27;94712.72;;;24.91;47.39
71194;BME280;58903;47.210;8.618;2022-10-31T01:35:53;94710.22;;;24.93;47.39
71194;BME280;58903;47.210;8.618;2022-10-31T01:38:19;94715.97;;;24.95;47.29
71194;BME280;58903;47.210;8.618;2022-10-31T01:40:56;94706.22;;;24.94;47.31
71194;BME280;58903;47.210;8.618;2022-10-31T01:43:55;94704.97;;;24.95;46.65
71194;BME280;58903;47.210;8.618;2022-10-31T01:46:37;94709.75;;;24.94;47.02
71194;BME280;58903;47.210;8.618;2022-10-31T01:58:56;94711.47;;;24.92;46.82
71194;BME280;58903;47.210;8.618;2022-10-31T02:01:42;94712.25;;;24.92;47.46
71194;BME280;58903;47.210;8.618;2022-10-31T02:04:19;94705.72;;;24.90;46.78
71194;BME280;58903;47.210;8.618;2022-10-31T02:07:16;94704.47;;;24.91;46.72
71194;BME280;58903;47.210;8.618;2022-10-31T02:09:56;94699.72;;;24.91;47.17
71194;BME280;58903;47.210;8.618;2022-10-31T02:12:33;94695.97;;;24.89;46.72
71194;BME280;58903;47.210;8.618;2022-10-31T02:15:02;94699.97;;;24.88;47.57
71194;BME280;58903;47.210;8.618;2022-10-31T02:17:30;94691.47;;;24.86;47.09
71194;BME280;58903;47.210;8.618;2022-10-31T02:20:20;94693.19;;;24.89;46.74
71194;BME280;58903;47.210;8.618;2022-10-31T02:31:31;94686.72;;;24.92;47.54
71194;BME280;58903;47.210;8.618;2022-10-31T02:34:19;94680.97;;;24.90;46.62
71194;BME280;58903;47.210;8.618;2022-10-31T02:37:10;94687.94;;;24.91;46.86
71194;BME280;58903;47.210;8.618;2022-10-31T02:43:09;94679.94;;;24.87;47.46
71194;BME280;58903;47.210;8.618;2022-10-31T02:46:08;94683.72;;;24.90;46.60
71194;BME280;58903;47.210;8.618;2022-10-31T02:48:40;94683.47;;;24.88;47.49
71194;BME280;58903;47.210;8.618;2022-10-31T02:51:23;94684.19;;;24.88;46.86
71194;BME280;58903;47.210;8.618;2022-10-31T02:54:27;94676.69;;;24.89;47.28
71194;BME280;58903;47.210;8.618;2022-10-31T02:57:12;94679.44;;;24.89;47.42
71194;BME280;58903;47.210;8.618;2022-10-31T02:59:54;94680.19;;;24.89;46.98
71194;BME280;58903;47.210;8.618;2022-10-31T03:05:25;94678.19;;;24.84;46.65
71194;BME280;58903;47.210;8.618;2022-10-31T03:08:08;94675.94;;;24.83;46.70
71194;BME280;58903;47.210;8.618;2022-10-31T03:15:44;94671.97;;;24.84;47.28
71194;BME280;58903;47.210;8.618;2022-10-31T03:18:28;94662.19;;;24.83;47.08
71194;BME280;58903;47.210;8.618;2022-10-31T03:21:14;94664.94;;;24.83;46.66
71194;BME280;58903;47.210;8.618;2022-10-31T03:23:46;94666.94;;;24.82;47.34
71194;BME280;58903;47.210;8.618;2022-10-31T03:26:30;94666.47;;;24.84;46.75
71194;BME280;58903;47.210;8.618;2022-10-31T03:29:16;94669.69;;;24.82;47.14
71194;BME280;58903;47.210;8.618;2022-10-31T03:31:50;94668.19;;;24.81;47.39
71194;BME280;58903;47.210;8.618;2022-10-31T03:34:37;94665.19;;;24.79;46.71
71194;BME280;58903;47.210;8.618;2022-10-31T03:37:16;94666.44;;;24.78;46.77
71194;BME280;58903;47.210;8.618;2022-10-31T03:39:49;94655.44;;;24.78;46.85
71194;BME280;58903;47.210;8.618;2022-10-31T03:42:25;94652.44;;;24.76;46.99
71194;BME280;58903;47.210;8.618;2022-10-31T03:47:39;94648.91;;;24.76;46.76
71194;BME280;58903;47.210;8.618;2022-10-31T03:50:09;94653.19;;;24.77;46.54
71194;BME280;58903;47.210;8.618;2022-10-31T03:52:55;94651.94;;;24.78;47.27
71194;BME280;58903;47.210;8.618;2022-10-31T03:55:42;94646.41;;;24.78;47.08
71194;BME280;58903;47.210;8.618;2022-10-31T03:58:25;94646.41;;;24.78;47.08
71194;BME280;58903;47.210;8.618;2022-10-31T04:00:57;94638.69;;;24.76;46.48
71194;BME280;58903;47.210;8.618;2022-10-31T04:03:53;94643.66;;;24.78;46.41
71194;BME280;58903;47.210;8.618;2022-10-31T04:06:21;94639.44;;;24.77;46.67
71194;BME280;58903;47.210;8.618;2022-10-31T04:09:00;94644.94;;;24.77;47.17
71194;BME280;58903;47.210;8.618;2022-10-31T04:11:34;94641.16;;;24.74;46.96
71194;BME280;58903;47.210;8.618;2022-10-31T04:14:06;94642.66;;;24.75;46.75
71194;BME280;58903;47.210;8.618;2022-10-31T04:16:35;94653.19;;;24.77;46.61
71194;BME280;58903;47.210;8.618;2022-10-31T04:19:01;94640.41;;;24.73;46.95
71194;BME280;58903;47.210;8.618;2022-10-31T04:21:29;94641.66;;;24.73;47.02
71194;BME280;58903;47.210;8.618;2022-10-31T04:24:08;94636.16;;;24.73;46.66
71194;BME280;58903;47.210;8.618;2022-10-31T04:26:36;94638.91;;;24.73;46.82
71194;BME280;58903;47.210;8.618;2022-10-31T04:29:02;94640.91;;;24.72;46.82
71194;BME280;58903;47.210;8.618;2022-10-31T04:31:39;94638.16;;;24.72;47.13
71194;BME280;58903;47.210;8.618;2022-10-31T04:34:14;94639.91;;;24.69;46.85
71194;BME280;58903;47.210;8.618;2022-10-31T04:36:48;94633.41;;;24.73;47.37
71194;BME280;58903;47.210;8.618;2022-10-31T04:39:14;94629.13;;;24.71;46.41
71194;BME280;58903;47.210;8.618;2022-10-31T04:41:49;94638.16;;;24.72;46.49
71194;BME280;58903;47.210;8.618;2022-10-31T04:44:16;94622.41;;;24.73;46.85
71194;BME280;58903;47.210;8.618;2022-10-31T04:46:46;94618.13;;;24.71;47.04
71194;BME280;58903;47.210;8.618;2022-10-31T04:49:14;94619.41;;;24.70;47.13
71194;BME280;58903;47.210;8.618;2022-10-31T04:51:40;94620.13;;;24.71;46.88
71194;BME280;58903;47.210;8.618;2022-10-31T04:54:06;94616.38;;;24.68;46.86
71194;BME280;58903;47.210;8.618;2022-10-31T04:56:37;94615.91;;;24.70;46.66
71194;BME280;58903;47.210;8.618;2022-10-31T04:59:06;94615.13;;;24.69;46.61
71194;BME280;58903;47.210;8.618;2022-10-31T05:01:32;94614.38;;;24.69;46.24
71194;BME280;58903;47.210;8.618;2022-10-31T05:04:03;94617.13;;;24.69;47.21
71194;BME280;58903;47.210;8.618;2022-10-31T05:06:30;94616.88;;;24.67;46.36
71194;BME280;58903;47.210;8.618;2022-10-31T05:09:05;94608.88;;;24.63;46.67
71194;BME280;58903;47.210;8.618;2022-10-31T05:11:39;94603.38;;;24.63;46.80
71194;BME280;58903;47.210;8.618;2022-10-31T05:14:05;94619.88;;;24.63;47.13
71194;BME280;58903;47.210;8.618;2022-10-31T05:16:31;94615.16;;;24.64;46.68
71194;BME280;58903;47.210;8.618;2022-10-31T05:18:59;94607.38;;;24.62;46.75
71194;BME280;58903;47.210;8.618;2022-10-31T05:21:47;94602.63;;;24.63;46.63
71194;BME280;58903;47.210;8.618;2022-10-31T05:24:29;94604.88;;;24.59;46.61
71194;BME280;58903;47.210;8.618;2022-10-31T05:26:56;94610.13;;;24.57;46.84
71194;BME280;58903;47.210;8.618;2022-10-31T05:29:28;94605.38;;;24.57;47.46
71194;BME280;58903;47.210;8.618;2022-10-31T05:32:16;94596.91;;;24.55;47.09
71194;BME280;58903;47.210;8.618;2022-10-31T05:34:46;94598.38;;;24.56;47.35
71194;BME280;58903;47.210;8.618;2022-10-31T05:37:30;94604.63;;;24.57;46.48
71194;BME280;58903;47.210;8.618;2022-10-31T05:39:56;94594.88;;;24.56;47.34
71194;BME280;58903;47.210;8.618;2022-10-31T05:42:30;94588.91;;;24.57;46.74
71194;BME280;58903;47.210;8.618;2022-10-31T05:45:08;94584.88;;;24.58;46.63
71194;BME280;58903;47.210;8.618;2022-10-31T05:47:36;94584.13;;;24.58;46.71
71194;BME280;58903;47.210;8.618;2022-10-31T05:50:15;94575.13;;;24.57;46.90
71194;BME280;58903;47.210;8.618;2022-10-31T05:52:57;94567.63;;;24.58;46.43
71194;BME280;58903;47.210;8.618;2022-10-31T05:55:32;94576.63;;;24.58;46.47
71194;BME280;58903;47.210;8.618;2022-10-31T05:57:58;94576.38;;;24.56;46.85
71194;BME280;58903;47.210;8.618;2022-10-31T06:00:32;94564.88;;;24.52;47.18
71194;BME280;58903;47.210;8.618;2022-10-31T06:03:06;94561.88;;;24.50;46.87
71194;BME280;58903;47.210;8.618;2022-10-31T06:05:36;94573.13;;;24.52;47.33
71194;BME280;58903;47.210;8.618;2022-10-31T06:08:25;94585.63;;;24.53;47.11
71194;BME280;58903;47.210;8.618;2022-10-31T06:11:00;94590.88;;;24.51;47.80
71194;BME280;58903;47.210;8.618;2022-10-31T06:13:26;94588.13;;;24.51;47.67
71194;BME280;58903;47.210;8.618;2022-10-31T06:15:52;94586.88;;;24.52;47.44
71194;BME280;58903;47.210;8.618;2022-10-31T06:18:20;94591.63;;;24.52;47.06
71194;BME280;58903;47.210;8.618;2022-10-31T06:20:48;94594.88;;;24.50;47.28
71194;BME280;58903;47.210;8.618;2022-10-31T06:23:16;94596.13;;;24.49;47.03
71194;BME280;58903;47.210;8.618;2022-10-31T06:25:54;94597.88;;;24.52;47.04
71194;BME280;58903;47.210;8.618;2022-10-31T06:28:32;94595.13;;;24.52;48.77
71194;BME280;58903;47.210;8.618;2022-10-31T06:30:59;94597.13;;;24.52;47.46
71194;BME280;58903;47.210;8.618;2022-10-31T06:33:25;94599.38;;;24.53;47.17
71194;BME280;58903;47.210;8.618;2022-10-31T06:35:57;94597.38;;;24.54;47.49
71194;BME280;58903;47.210;8.618;2022-10-31T06:38:26;94597.38;;;24.54;46.93
71194;BME280;58903;47.210;8.618;2022-10-31T06:41:21;94590.63;;;24.55;46.96
71194;BME280;58903;47.210;8.618;2022-10-31T06:43:47;94596.91;;;24.55;46.88
71194;BME280;58903;47.210;8.618;2022-10-31T06:46:16;94589.63;;;24.52;47.02
71194;BME280;58903;47.210;8.618;2022-10-31T06:48:44;94601.63;;;24.55;46.87
71194;BME280;58903;47.210;8.618;2022-10-31T06:51:23;94598.63;;;24.53;47.16
71194;BME280;58903;47.210;8.618;2022-10-31T06:53:59;94597.88;;;24.52;47.21
71194;BME280;58903;47.210;8.618;2022-10-31T06:56:46;94590.88;;;24.51;47.72
71194;BME280;58903;47.210;8.618;2022-10-31T06:59:32;94597.88;;;24.52;47.68
71194;BME280;58903;47.210;8.618;2022-10-31T07:02:09;94608.88;;;24.52;47.25
71194;BME280;58903;47.210;8.618;2022-10-31T07:04:55;94599.13;;;24.51;47.08
71194;BME280;58903;47.210;8.618;2022-10-31T07:07:31;94589.38;;;24.50;47.32
71194;BME280;58903;47.210;8.618;2022-10-31T07:10:08;94605.63;;;24.48;47.22
71194;BME280;58903;47.210;8.618;2022-10-31T07:12:43;94601.63;;;24.49;47.85
71194;BME280;58903;47.210;8.618;2022-10-31T07:15:09;94610.63;;;24.50;47.25
71194;BME280;58903;47.210;8.618;2022-10-31T07:17:35;94604.38;;;24.49;46.96
71194;BME280;58903;47.210;8.618;2022-10-31T07:20:01;94610.13;;;24.51;47.28
71194;BME280;58903;47.210;8.618;2022-10-31T07:22:39;94606.63;;;24.51;47.63
71194;BME280;58903;47.210;8.618;2022-10-31T07:25:10;94605.88;;;24.50;47.44
71194;BME280;58903;47.210;8.618;2022-10-31T07:28:05;94608.63;;;24.50;47.02
71194;BME280;58903;47.210;8.618;2022-10-31T07:30:32;94599.63;;;24.50;47.44
71194;BME280;58903;47.210;8.618;2022-10-31T07:33:11;94611.88;;;24.49;47.67
71194;BME280;58903;47.210;8.618;2022-10-31T07:35:48;94608.84;;;24.47;47.69
71194;BME280;58903;47.210;8.618;2022-10-31T07:38:32;94613.63;;;24.46;47.38
71194;BME280;58903;47.210;8.618;2022-10-31T07:41:08;94613.38;;;24.44;47.36
71194;BME280;58903;47.210;8.618;2022-10-31T07:43:35;94612.13;;;24.45;47.75
71194;BME280;58903;47.210;8.618;2022-10-31T07:46:03;94621.13;;;24.46;46.90
71194;BME280;58903;47.210;8.618;2022-10-31T07:48:29;94612.88;;;24.46;47.84
71194;BME280;58903;47.210;8.618;2022-10-31T07:51:30;94615.63;;;24.46;47.03
71194;BME280;58903;47.210;8.618;2022-10-31T07:54:04;94620.34;;;24.45;47.83
71194;BME280;58903;47.210;8.618;2022-10-31T07:56:37;94617.09;;;24.47;47.55
71194;BME280;58903;47.210;8.618;2022-10-31T07:59:06;94620.63;;;24.47;47.35
71194;BME280;58903;47.210;8.618;2022-10-31T08:01:36;94616.38;;;24.46;47.86
71194;BME280;58903;47.210;8.618;2022-10-31T08:04:02;94617.34;;;24.43;48.04
71194;BME280;58903;47.210;8.618;2022-10-31T08:06:31;94618.38;;;24.46;47.68
71194;BME280;58903;47.210;8.618;2022-10-31T08:08:57;94612.38;;;24.47;47.17
71194;BME280;58903;47.210;8.618;2022-10-31T08:11:23;94612.38;;;24.47;47.58
71194;BME280;58903;47.210;8.618;2022-10-31T08:13:49;94610.88;;;24.46;47.23
71194;BME280;58903;47.210;8.618;2022-10-31T08:16:17;94616.38;;;24.46;47.52
71194;BME280;58903;47.210;8.618;2022-10-31T08:18:45;94618.38;;;24.46;47.35
71194;BME280;58903;47.210;8.618;2022-10-31T08:21:11;94609.38;;;24.45;47.31
71194;BME280;58903;47.210;8.618;2022-10-31T08:23:37;94610.13;;;24.46;47.72
71194;BME280;58903;47.210;8.618;2022-10-31T08:26:02;94615.63;;;24.46;47.23
71194;BME280;58903;47.210;8.618;2022-10-31T08:28:28;94610.38;;;24.48;47.08
71194;BME280;58903;47.210;8.618;2022-10-31T08:30:59;94611.59;;;24.47;47.10
71194;BME280;58903;47.210;8.618;2022-10-31T08:33:32;94605.13;;;24.44;47.40
71194;BME280;58903;47.210;8.618;2022-10-31T08:36:01;94603.88;;;24.45;47.37
71194;BME280;58903;47.210;8.618;2022-10-31T08:38:29;94614.59;;;24.43;48.07
71194;BME280;58903;47.210;8.618;2022-10-31T08:41:00;94618.63;;;24.42;47.63
71194;BME280;58903;47.210;8.618;2022-10-31T08:43:28;94611.09;;;24.43;47.54
71194;BME280;58903;47.210;8.618;2022-10-31T08:46:06;94610.63;;;24.44;47.74
71194;BME280;58903;47.210;8.618;2022-10-31T08:48:37;94603.09;;;24.45;47.12
71194;BME280;58903;47.210;8.618;2022-10-31T08:51:03;94603.09;;;24.45;47.33
71194;BME280;58903;47.210;8.618;2022-10-31T08:53:47;94606.38;;;24.43;47.37
71194;BME280;58903;47.210;8.618;2022-10-31T08:56:21;94599.38;;;24.42;47.38
71194;BME280;58903;47.210;8.618;2022-10-31T08:58:53;94607.88;;;24.44;48.12
71194;BME280;58903;47.210;8.618;2022-10-31T09:01:22;94617.34;;;24.43;47.46
71194;BME280;58903;47.210;8.618;2022-10-31T09:03:50;94611.84;;;24.43;47.82
71194;BME280;58903;47.210;8.618;2022-10-31T09:06:19;94603.34;;;24.41;47.61
71194;BME280;58903;47.210;8.618;2022-10-31T09:08:45;94612.38;;;24.42;47.47
71194;BME280;58903;47.210;8.618;2022-10-31T09:11:11;94619.34;;;24.43;48.04
71194;BME280;58903;47.210;8.618;2022-10-31T09:13:39;94615.63;;;24.46;47.45
71194;BME280;58903;47.210;8.618;2022-10-31T09:16:05;94617.88;;;24.47;47.59
71194;BME280;58903;47.210;8.618;2022-10-31T09:18:34;94608.38;;;24.48;47.36
71194;BME280;58903;47.210;8.618;2022-10-31T09:21:09;94619.38;;;24.48;47.91
71194;BME280;58903;47.210;8.618;2022-10-31T09:23:37;94611.59;;;24.47;47.54
71194;BME280;58903;47.210;8.618;2022-10-31T09:26:05;94605.13;;;24.44;47.65
71194;BME280;58903;47.210;8.618;2022-10-31T09:28:33;94601.38;;;24.47;47.66
71194;BME280;58903;47.210;8.618;2022-10-31T09:30:59;94607.13;;;24.49;47.44
71194;BME280;58903;47.210;8.618;2022-10-31T09:33:27;94598.13;;;24.49;47.82
71194;BME280;58903;47.210;8.618;2022-10-31T09:35:53;94600.13;;;24.48;47.70
71194;BME280;58903;47.210;8.618;2022-10-31T09:38:20;94600.88;;;24.49;47.78
71194;BME280;58903;47.210;8.618;2022-10-31T09:40:54;94592.63;;;24.49;47.97
71194;BME280;58903;47.210;8.618;2022-10-31T09:49:37;94602.38;;;24.50;48.24
71194;BME280;58903;47.210;8.618;2022-10-31T09:52:47;94591.63;;;24.52;47.38
71194;BME280;58903;47.210;8.618;2022-10-31T09:55:27;94594.88;;;24.50;47.40
71194;BME280;58903;47.210;8.618;2022-10-31T09:58:27;94590.63;;;24.49;47.69
71194;BME280;58903;47.210;8.618;2022-10-31T10:01:23;94583.88;;;24.50;47.47
71194;BME280;58903;47.210;8.618;2022-10-31T10:06:59;94580.13;;;24.53;47.77
71194;BME280;58903;47.210;8.618;2022-10-31T10:09:30;94575.38;;;24.54;47.43
71194;BME280;58903;47.210;8.618;2022-10-31T10:15:34;94575.88;;;24.52;47.75
71194;BME280;58903;47.210;8.618;2022-10-31T10:18:56;94562.88;;;24.47;47.95
71194;BME280;58903;47.210;8.618;2022-10-31T10:21:47;94574.13;;;24.55;47.26
71194;BME280;58903;47.210;8.618;2022-10-31T10:27:16;94574.91;;;24.55;48.01
71194;BME280;58903;47.210;8.618;2022-10-31T10:30:18;94574.91;;;24.55;47.63
71194;BME280;58903;47.210;8.618;2022-10-31T10:32:56;94574.91;;;24.55;47.65
71194;BME280;58903;47.210;8.618;2022-10-31T10:35:35;94573.63;;;24.56;47.15
71194;BME280;58903;47.210;8.618;2022-10-31T10:40:31;94565.13;;;24.54;47.86
71194;BME280;58903;47.210;8.618;2022-10-31T10:45:53;94557.13;;;24.56;47.60
71194;BME280;58903;47.210;8.618;2022-10-31T10:59:56;94550.88;;;24.61;47.22
71194;BME280;58903;47.210;8.618;2022-10-31T11:02:34;94553.13;;;24.63;47.03
71194;BME280;58903;47.210;8.618;2022-10-31T11:05:03;94546.38;;;24.64;47.06
71194;BME280;58903;47.210;8.618;2022-10-31T11:07:44;94552.63;;;24.64;47.77
71194;BME280;58903;47.210;8.618;2022-10-31T11:10:14;94556.13;;;24.65;46.89
71194;BME280;58903;47.210;8.618;2022-10-31T11:12:44;94564.38;;;24.65;47.17
71194;BME280;58903;47.210;8.618;2022-10-31T11:15:22;94554.88;;;24.60;47.63
71194;BME280;58903;47.210;8.618;2022-10-31T11:17:51;94545.13;;;24.59;47.73
71194;BME280;58903;47.210;8.618;2022-10-31T11:20:25;94546.63;;;24.60;47.05
71194;BME280;58903;47.210;8.618;2022-10-31T11:23:15;94541.38;;;24.62;47.34
71194;BME280;58903;47.210;8.618;2022-10-31T11:25:59;94535.38;;;24.58;47.21
71194;BME280;58903;47.210;8.618;2022-10-31T11:28:33;94533.38;;;24.59;47.26
71194;BME280;58903;47.210;8.618;2022-10-31T11:31:12;94530.63;;;24.59;47.26
71194;BME280;58903;47.210;8.618;2022-10-31T11:34:03;94535.63;;;24.60;47.45
71194;BME280;58903;47.210;8.618;2022-10-31T11:36:37;94535.88;;;24.62;47.42
71194;BME280;58903;47.210;8.618;2022-10-31T11:39:20;94531.63;;;24.61;47.55
71194;BME280;58903;47.210;8.618;2022-10-31T11:42:02;94524.88;;;24.62;47.73
71194;BME280;58903;47.210;8.618;2022-10-31T11:44:43;94526.91;;;24.62;47.85
71194;BME280;58903;47.210;8.618;2022-10-31T11:47:26;94526.38;;;24.63;47.35
71194;BME280;58903;47.210;8.618;2022-10-31T11:49:56;94518.13;;;24.63;47.55
71194;BME280;58903;47.210;8.618;2022-10-31T11:52:38;94513.88;;;24.62;47.88
71194;BME280;58903;47.210;8.618;2022-10-31T11:55:37;94516.63;;;24.62;47.31
71194;BME280;58903;47.210;8.618;2022-10-31T11:58:21;94516.88;;;24.64;47.37
71194;BME280;58903;47.210;8.618;2022-10-31T12:00:51;94501.88;;;24.65;48.21
71194;BME280;58903;47.210;8.618;2022-10-31T12:03:57;94504.13;;;24.67;47.31
71194;BME280;58903;47.210;8.618;2022-10-31T12:06:39;94503.38;;;24.66;47.91
71194;BME280;58903;47.210;8.618;2022-10-31T12:09:27;94486.13;;;24.66;47.87
71194;BME280;58903;47.210;8.618;2022-10-31T12:15:05;94482.38;;;24.69;47.73
71194;BME280;58903;47.210;8.618;2022-10-31T12:26:09;94462.13;;;24.78;47.83
71194;BME280;58903;47.210;8.618;2022-10-31T12:48:56;94437.84;;;24.87;48.56
71194;BME280;58903;47.210;8.618;2022-10-31T12:57:24;94415.81;;;24.93;48.32
71194;BME280;58903;47.210;8.618;2022-10-31T13:00:14;94411.81;;;24.94;48.75
71194;BME280;58903;47.210;8.618;2022-10-31T13:03:21;94401.56;;;24.94;49.08
71194;BME280;58903;47.210;8.618;2022-10-31T13:06:03;94399.81;;;24.97;48.77
71194;BME280;58903;47.210;8.618;2022-10-31T13:08:42;94400.78;;;24.99;48.73
71194;BME280;58903;47.210;8.618;2022-10-31T13:11:49;94389.28;;;25.01;48.99
71194;BME280;58903;47.210;8.618;2022-10-31T13:25:54;94374.19;;;25.13;48.49
71194;BME280;58903;47.210;8.618;2022-10-31T13:31:05;94367.69;;;25.16;48.25
71194;BME280;58903;47.210;8.618;2022-10-31T13:34:08;94363.66;;;25.17;48.19
71194;BME280;58903;47.210;8.618;2022-10-31T13:44:48;94350.09;;;25.30;48.36
71194;BME280;58903;47.210;8.618;2022-10-31T13:47:28;94354.34;;;25.31;48.81
71194;BME280;58903;47.210;8.618;2022-10-31T13:50:28;94339.53;;;25.34;48.03
71194;BME280;58903;47.210;8.618;2022-10-31T13:53:20;94334.28;;;25.36;48.59
71194;BME280;58903;47.210;8.618;2022-10-31T13:55:47;94342.28;;;25.39;48.29
71194;BME280;58903;47.210;8.618;2022-10-31T14:01:16;94325.97;;;25.47;48.47
71194;BME280;58903;47.210;8.618;2022-10-31T14:03:55;94331.22;;;25.51;47.84
71194;BME280;58903;47.210;8.618;2022-10-31T14:06:37;94324.44;;;25.52;48.47
71194;BME280;58903;47.210;8.618;2022-10-31T14:09:04;94322.16;;;25.56;48.36
71194;BME280;58903;47.210;8.618;2022-10-31T14:11:36;94318.63;;;25.61;48.31
71194;BME280;58903;47.210;8.618;2022-10-31T14:14:02;94316.63;;;25.61;47.55
71194;BME280;58903;47.210;8.618;2022-10-31T14:16:31;94314.63;;;25.62;47.64
71194;BME280;58903;47.210;8.618;2022-10-31T14:19:07;94317.84;;;25.66;47.97
71194;BME280;58903;47.210;8.618;2022-10-31T14:21:43;94313.81;;;25.67;47.81
71194;BME280;58903;47.210;8.618;2022-10-31T14:24:32;94304.53;;;25.70;47.68
71194;BME280;58903;47.210;8.618;2022-10-31T14:30:12;94292.72;;;25.75;47.76
71194;BME280;58903;47.210;8.618;2022-10-31T14:32:59;94286.47;;;25.74;47.49
71194;BME280;58903;47.210;8.618;2022-10-31T14:36:07;94293.22;;;25.73;48.10
71194;BME280;58903;47.210;8.618;2022-10-31T14:41:49;94292.97;;;25.71;47.68
71194;BME280;58903;47.210;8.618;2022-10-31T14:47:50;94285.25;;;25.70;47.65
71194;BME280;58903;47.210;8.618;2022-10-31T14:52:48;94278.94;;;25.75;48.15
71194;BME280;58903;47.210;8.618;2022-10-31T14:55:18;94278.41;;;25.76;47.83
71194;BME280;58903;47.210;8.618;2022-10-31T14:58:01;94277.41;;;25.79;47.38
71194;BME280;58903;47.210;8.618;2022-10-31T15:00:32;94280.16;;;25.79;47.78
71194;BME280;58903;47.210;8.618;2022-10-31T15:04:00;94271.59;;;25.83;47.85
71194;BME280;58903;47.210;8.618;2022-10-31T15:06:21;94267.06;;;25.85;48.00
71194;BME280;58903;47.210;8.618;2022-10-31T15:09:27;94270.06;;;25.87;47.90
71194;BME280;58903;47.210;8.618;2022-10-31T15:12:23;94261.28;;;25.89;47.29
71194;BME280;58903;47.210;8.618;2022-10-31T15:14:50;94270.59;;;25.86;47.66
71194;BME280;58903;47.210;8.618;2022-10-31T15:17:16;94279.06;;;25.88;47.70
71194;BME280;58903;47.210;8.618;2022-10-31T15:19:57;94277.81;;;25.89;47.70
71194;BME280;58903;47.210;8.618;2022-10-31T15:22:35;94269.31;;;25.87;47.80
71194;BME280;58903;47.210;8.618;2022-10-31T15:25:10;94260.06;;;25.84;47.73
71194;BME280;58903;47.210;8.618;2022-10-31T15:27:43;94262.59;;;25.82;47.12
71194;BME280;58903;47.210;8.618;2022-10-31T15:30:21;94264.59;;;25.82;47.24
71194;BME280;58903;47.210;8.618;2022-10-31T15:32:53;94269.88;;;25.80;47.97
71194;BME280;58903;47.210;8.618;2022-10-31T15:35:24;94267.63;;;25.78;47.23
71194;BME280;58903;47.210;8.618;2022-10-31T15:38:00;94263.41;;;25.77;47.76
71194;BME280;58903;47.210;8.618;2022-10-31T15:43:39;94257.63;;;25.75;47.56
71194;BME280;58903;47.210;8.618;2022-10-31T15:46:09;94255.41;;;25.74;47.60
71194;BME280;58903;47.210;8.618;2022-10-31T15:48:38;94247.44;;;25.70;47.23
71194;BME280;58903;47.210;8.618;2022-10-31T15:51:12;94251.66;;;25.71;47.19
71194;BME280;58903;47.210;8.618;2022-10-31T15:53:51;94239.91;;;25.71;47.58
71194;BME280;58903;47.210;8.618;2022-10-31T15:56:32;94246.91;;;25.72;47.55
71194;BME280;58903;47.210;8.618;2022-10-31T15:59:22;94247.91;;;25.69;47.68
71194;BME280;58903;47.210;8.618;2022-10-31T16:02:10;94247.19;;;25.68;47.23
71194;BME280;58903;47.210;8.618;2022-10-31T16:04:49;94246.44;;;25.68;47.43
71194;BME280;58903;47.210;8.618;2022-10-31T16:07:34;94234.69;;;25.67;46.91
71194;BME280;58903;47.210;8.618;2022-10-31T16:10:03;94248.00;;;25.63;46.76